aviador You're here:

OITM Decoded Metar

MARAGHEH in IRAN
Report Time2017-08-22 08:00:00
UTC Time2017-08-22 09:02:12
Flight Rules vfr VFR
Wind220° at 04 kt
W.Decomp.*RWY 26: 2.9 kt HW 2.8 kt LCW
W.Rank220° ranks 15
Current wind is below 220° avg. (7.2)
Visibility9999 m
Phenomena:N/A
Clouds:N/A
Expected CloudBase > 9,200 ft AGL from Temp-Dew spread
CeilingNone
Temp33°C (ISA +27)
Dew Point10°C (24% RH)
Heat Index31.3°C
AAT31.5°C
QNH1013 hPa
Density Alt7,575 ft
Elevation4,396 ft
Report Wrong Elevation
Raw Report
METAR OITM 220800Z 22004KT CAVOK 33/10 Q1013=

Extra information for OITM:More info

Metar Taf Metar & Taf Last 4 Metars F.Rules Stats Wind Profile Meteogram Temp Stats Airport Information Weather charts Add Link Nearby VenuesMetar ALERT Operation Metar Decoded Social comments